createdAt,value
2022-08-05T00:00:35.169Z,0.00
2022-08-05T00:01:36.090Z,0.00
2022-08-05T00:02:34.994Z,0.00
2022-08-05T00:03:34.203Z,0.00
2022-08-05T00:04:34.115Z,0.00
2022-08-05T00:06:05.257Z,0.00
2022-08-05T00:06:35.844Z,0.00
2022-08-05T00:08:00.936Z,0.00
2022-08-05T00:08:36.393Z,0.00
2022-08-05T00:09:33.962Z,0.00
2022-08-05T00:10:34.018Z,0.00
2022-08-05T00:11:35.029Z,0.00
2022-08-05T00:12:35.143Z,0.00
2022-08-05T00:13:39.037Z,0.00
2022-08-05T00:14:34.022Z,0.00
2022-08-05T00:15:56.349Z,0.00
2022-08-05T00:16:35.358Z,0.00
2022-08-05T00:17:33.906Z,0.00
2022-08-05T00:18:33.907Z,0.00
2022-08-05T00:19:40.683Z,0.00
2022-08-05T00:20:34.762Z,0.00
2022-08-05T00:21:35.997Z,0.00
2022-08-05T00:22:33.923Z,0.00
2022-08-05T00:23:46.702Z,0.00
2022-08-05T00:24:34.751Z,0.00
2022-08-05T00:25:34.599Z,0.00
2022-08-05T00:26:34.841Z,0.00
2022-08-05T00:27:36.511Z,0.00
2022-08-05T00:28:33.715Z,0.00
2022-08-05T00:29:37.955Z,0.00
2022-08-05T00:30:33.767Z,0.00
2022-08-05T00:31:53.085Z,0.00
2022-08-05T00:32:34.786Z,0.00
2022-08-05T00:34:53.259Z,0.00
2022-08-05T00:34:53.755Z,0.00
2022-08-05T00:35:34.651Z,0.00
2022-08-05T00:37:11.094Z,0.00
2022-08-05T00:37:50.399Z,0.00
2022-08-05T00:38:34.756Z,0.00
2022-08-05T00:39:37.017Z,0.00
2022-08-05T00:40:34.645Z,0.00
2022-08-05T00:41:51.593Z,0.00
2022-08-05T00:42:34.590Z,0.00
2022-08-05T00:43:47.111Z,0.00
2022-08-05T00:44:34.517Z,0.00
2022-08-05T00:45:39.009Z,0.00
2022-08-05T00:46:42.710Z,0.00
2022-08-05T00:47:56.601Z,0.00
2022-08-05T00:48:34.536Z,0.00
2022-08-05T00:49:51.487Z,0.00
2022-08-05T00:50:34.444Z,0.00
2022-08-05T00:51:50.458Z,0.00
2022-08-05T00:52:34.516Z,0.00
2022-08-05T00:54:01.263Z,0.00
2022-08-05T00:54:34.613Z,0.00
2022-08-05T00:55:42.651Z,0.00
2022-08-05T00:56:34.452Z,0.00
2022-08-05T00:57:55.409Z,0.00
2022-08-05T00:58:34.392Z,0.00
2022-08-05T00:59:42.070Z,0.00
2022-08-05T01:00:34.335Z,0.00
2022-08-05T01:01:48.695Z,0.00
2022-08-05T01:02:34.357Z,0.00
2022-08-05T01:03:34.243Z,0.00
2022-08-05T01:04:33.333Z,0.00
2022-08-05T01:05:33.297Z,0.00
2022-08-05T01:06:33.296Z,0.00
2022-08-05T01:07:33.297Z,0.00
2022-08-05T01:08:43.333Z,0.00
2022-08-05T01:09:34.241Z,0.00
2022-08-05T01:10:33.264Z,0.00
2022-08-05T01:11:37.271Z,0.00
2022-08-05T01:12:33.217Z,0.00
2022-08-05T01:13:57.896Z,0.00
2022-08-05T01:14:34.253Z,0.00
2022-08-05T01:15:36.375Z,0.00
2022-08-05T01:16:33.193Z,0.00
2022-08-05T01:17:33.161Z,0.00
2022-08-05T01:18:34.234Z,0.00
2022-08-05T01:19:57.004Z,0.00
2022-08-05T01:20:34.142Z,0.00
2022-08-05T01:21:38.254Z,0.00
2022-08-05T01:22:34.319Z,0.00
2022-08-05T01:23:34.938Z,0.00
2022-08-05T01:24:33.150Z,0.00
2022-08-05T01:25:40.866Z,0.00
2022-08-05T01:26:34.087Z,0.00
2022-08-05T01:27:33.150Z,0.00
2022-08-05T01:28:33.093Z,0.00
2022-08-05T01:29:33.099Z,0.00
2022-08-05T01:30:34.716Z,0.00
2022-08-05T01:31:32.942Z,0.00
2022-08-05T01:32:34.014Z,0.00
2022-08-05T01:33:35.657Z,0.00
2022-08-05T01:34:32.995Z,0.00
2022-08-05T01:35:51.899Z,0.00
2022-08-05T01:36:34.043Z,0.00
2022-08-05T01:37:32.959Z,0.00
2022-08-05T01:38:32.903Z,0.00
2022-08-05T01:39:46.620Z,0.00
2022-08-05T01:40:33.894Z,0.00
2022-08-05T01:41:33.057Z,0.00
2022-08-05T01:42:32.963Z,0.00
2022-08-05T01:43:32.805Z,0.00
2022-08-05T01:44:34.247Z,0.00
2022-08-05T01:45:35.055Z,0.00
2022-08-05T01:46:46.086Z,0.00
2022-08-05T01:47:39.370Z,0.00
2022-08-05T01:48:33.854Z,0.00
2022-08-05T01:50:00.308Z,0.00
2022-08-05T01:50:33.954Z,0.00
2022-08-05T01:51:32.790Z,0.00
2022-08-05T01:52:32.739Z,0.00
2022-08-05T01:53:54.745Z,0.00
2022-08-05T01:54:33.864Z,0.00
2022-08-05T01:55:36.300Z,0.00
2022-08-05T01:58:10.553Z,0.00
2022-08-05T01:58:10.896Z,0.00
2022-08-05T01:59:04.466Z,0.00
2022-08-05T02:00:03.540Z,0.00
2022-08-05T02:01:03.387Z,0.00
2022-08-05T02:02:03.421Z,0.00
2022-08-05T02:03:03.508Z,0.00
2022-08-05T02:04:03.248Z,0.00
2022-08-05T02:05:03.354Z,0.00
2022-08-05T02:06:03.721Z,0.00
2022-08-05T02:07:04.212Z,0.00
2022-08-05T02:08:03.183Z,0.00
2022-08-05T02:09:03.192Z,0.00
2022-08-05T02:10:03.163Z,0.00
2022-08-05T02:11:03.731Z,0.00
2022-08-05T02:12:03.162Z,0.00
2022-08-05T02:13:04.786Z,0.00
2022-08-05T02:14:04.109Z,0.00
2022-08-05T02:15:03.979Z,0.00
2022-08-05T02:16:03.167Z,0.00
2022-08-05T02:17:03.125Z,0.00
2022-08-05T02:18:33.179Z,0.00
2022-08-05T02:19:07.075Z,0.00
2022-08-05T02:20:03.119Z,0.00
2022-08-05T02:21:03.057Z,0.00
2022-08-05T02:22:03.061Z,0.00
2022-08-05T02:23:03.054Z,0.00
2022-08-05T02:24:03.047Z,0.00
2022-08-05T02:25:03.028Z,0.00
2022-08-05T02:26:02.976Z,0.00
2022-08-05T02:27:10.234Z,0.00
2022-08-05T02:28:04.341Z,0.00
2022-08-05T02:29:04.111Z,0.00
2022-08-05T02:30:02.993Z,0.00
2022-08-05T02:31:02.957Z,0.00
2022-08-05T02:32:04.732Z,0.00
2022-08-05T02:33:03.002Z,0.00
2022-08-05T02:34:03.000Z,0.00
2022-08-05T02:35:13.489Z,0.00
2022-08-05T02:36:03.929Z,0.00
2022-08-05T02:37:02.906Z,0.00
2022-08-05T02:38:02.864Z,0.00
2022-08-05T02:39:03.001Z,0.00
2022-08-05T02:40:02.891Z,0.00
2022-08-05T02:41:14.672Z,0.00
2022-08-05T02:42:03.859Z,0.00
2022-08-05T02:43:02.833Z,0.00
2022-08-05T02:44:06.850Z,0.00
2022-08-05T02:45:03.928Z,0.00
2022-08-05T02:46:02.973Z,0.00
2022-08-05T02:47:02.900Z,0.00
2022-08-05T02:48:09.917Z,0.00
2022-08-05T02:49:03.801Z,0.00
2022-08-05T02:50:02.789Z,0.00
2022-08-05T02:51:02.747Z,0.00
2022-08-05T02:52:04.633Z,0.00
2022-08-05T02:53:02.681Z,0.00
2022-08-05T02:54:03.929Z,0.00
2022-08-05T02:55:05.142Z,0.00
2022-08-05T02:56:02.865Z,0.00
2022-08-05T02:57:02.725Z,0.00
2022-08-05T02:58:09.833Z,0.00
2022-08-05T02:59:03.884Z,0.00
2022-08-05T03:00:03.937Z,0.00
2022-08-05T03:01:02.791Z,0.00
2022-08-05T03:02:03.072Z,0.00
2022-08-05T03:03:02.706Z,0.00
2022-08-05T03:04:11.800Z,0.00
2022-08-05T03:05:04.676Z,0.00
2022-08-05T03:08:01.008Z,0.00
2022-08-05T03:08:43.769Z,0.00
2022-08-05T03:09:37.423Z,0.00
2022-08-05T03:10:37.522Z,0.00
2022-08-05T03:11:54.998Z,0.00
2022-08-05T03:12:36.782Z,0.00
2022-08-05T03:13:52.252Z,0.00
2022-08-05T03:14:45.933Z,0.00
2022-08-05T03:15:36.661Z,0.00
2022-08-05T03:16:35.970Z,0.00
2022-08-05T03:18:59.835Z,0.00
2022-08-05T03:19:04.204Z,0.00
2022-08-05T03:20:03.921Z,0.00
2022-08-05T03:22:50.150Z,0.00
2022-08-05T03:22:52.358Z,0.00
2022-08-05T03:23:52.083Z,0.00
2022-08-05T03:24:52.316Z,0.00
2022-08-05T03:26:04.780Z,0.00
2022-08-05T03:26:53.023Z,0.00
2022-08-05T03:27:59.263Z,0.00
2022-08-05T03:28:53.007Z,0.00
2022-08-05T03:30:08.333Z,0.00
2022-08-05T03:30:53.007Z,0.00
2022-08-05T03:31:57.122Z,0.00
2022-08-05T03:32:53.039Z,0.00
2022-08-05T03:33:52.951Z,0.00
2022-08-05T03:34:51.990Z,0.00
2022-08-05T03:35:51.955Z,0.00
2022-08-05T03:36:52.285Z,0.00
2022-08-05T03:37:53.537Z,4.00
2022-08-05T03:38:53.446Z,4.00
2022-08-05T03:40:00.912Z,0.00
2022-08-05T03:40:52.989Z,0.00
2022-08-05T03:41:52.664Z,4.00
2022-08-05T03:42:52.889Z,4.00
2022-08-05T03:44:08.241Z,0.00
2022-08-05T03:44:52.989Z,4.00
2022-08-05T03:45:57.271Z,4.00
2022-08-05T03:46:51.858Z,4.00
2022-08-05T03:47:51.819Z,4.00
2022-08-05T03:48:52.811Z,4.00
2022-08-05T03:49:52.519Z,8.00
2022-08-05T03:50:51.848Z,8.00
2022-08-05T03:52:50.073Z,8.00
2022-08-05T03:55:34.715Z,12.00
2022-08-05T03:55:49.851Z,12.00
2022-08-05T03:55:50.835Z,12.00
2022-08-05T03:56:10.601Z,12.00
2022-08-05T03:56:53.744Z,12.00
2022-08-05T03:57:51.787Z,16.00
2022-08-05T03:58:51.756Z,16.00
2022-08-05T03:59:54.827Z,16.00
2022-08-05T04:00:52.517Z,12.00
2022-08-05T04:01:52.156Z,12.00
2022-08-05T04:02:52.220Z,12.00
2022-08-05T04:04:08.899Z,16.00
2022-08-05T04:05:25.196Z,12.00
2022-08-05T04:05:51.688Z,12.00
2022-08-05T04:06:51.845Z,16.00
2022-08-05T04:07:57.947Z,16.00
2022-08-05T04:08:52.676Z,16.00
2022-08-05T04:09:53.402Z,20.00
2022-08-05T04:10:51.825Z,20.00
2022-08-05T04:11:52.754Z,20.00
2022-08-05T04:12:51.668Z,24.00
2022-08-05T04:13:53.611Z,24.00
2022-08-05T04:14:51.521Z,20.00
2022-08-05T04:15:52.613Z,16.00
2022-08-05T04:16:52.573Z,20.00
2022-08-05T04:17:56.226Z,20.00
2022-08-05T04:18:54.248Z,24.00
2022-08-05T04:19:54.591Z,28.00
2022-08-05T04:20:52.463Z,28.00
2022-08-05T04:22:08.357Z,32.00
2022-08-05T04:22:52.628Z,32.00
2022-08-05T04:24:04.765Z,36.00
2022-08-05T04:24:53.183Z,40.00
2022-08-05T04:25:57.338Z,36.00
2022-08-05T04:26:51.469Z,36.00
2022-08-05T04:27:57.338Z,36.00
2022-08-05T04:28:52.365Z,24.00
2022-08-05T04:29:51.302Z,16.00
2022-08-05T04:30:51.313Z,24.00
2022-08-05T04:31:51.410Z,24.00
2022-08-05T04:32:51.354Z,36.00
2022-08-05T04:34:18.010Z,40.00
2022-08-05T04:34:52.254Z,56.00
2022-08-05T04:36:16.781Z,60.00
2022-08-05T04:36:52.202Z,52.00
2022-08-05T04:38:02.158Z,56.00
2022-08-05T04:38:52.255Z,44.00
2022-08-05T04:39:52.693Z,52.00
2022-08-05T04:40:51.242Z,68.00
2022-08-05T04:41:51.468Z,68.00
2022-08-05T04:42:51.210Z,64.00
2022-08-05T04:43:52.828Z,64.00
2022-08-05T04:44:51.202Z,68.00
2022-08-05T04:45:55.602Z,68.00
2022-08-05T04:46:51.112Z,64.00
2022-08-05T04:47:51.163Z,68.00
2022-08-05T04:48:51.670Z,68.00
2022-08-05T04:50:01.290Z,64.00
2022-08-05T04:51:01.955Z,72.00
2022-08-05T04:52:00.300Z,72.00
2022-08-05T04:52:52.115Z,76.00
2022-08-05T04:53:51.090Z,84.00
2022-08-05T04:54:51.074Z,96.00
2022-08-05T04:56:32.748Z,108.00
2022-08-05T04:56:55.268Z,124.00
2022-08-05T04:57:54.341Z,140.00
2022-08-05T04:58:51.018Z,156.00
2022-08-05T04:59:51.043Z,164.00
2022-08-05T05:00:51.242Z,168.00
2022-08-05T05:02:07.900Z,164.00
2022-08-05T05:02:52.112Z,152.00
2022-08-05T05:03:51.080Z,136.00
2022-08-05T05:04:51.420Z,124.00
2022-08-05T05:06:39.653Z,120.00
2022-08-05T05:06:57.584Z,116.00
2022-08-05T05:07:56.043Z,120.00
2022-08-05T05:08:51.063Z,120.00
2022-08-05T05:09:51.040Z,124.00
2022-08-05T05:10:56.109Z,140.00
2022-08-05T05:11:55.398Z,152.00
2022-08-05T05:12:50.939Z,176.00
2022-08-05T05:13:50.933Z,204.00
2022-08-05T05:14:51.414Z,232.00
2022-08-05T05:15:56.953Z,248.00
2022-08-05T05:16:51.851Z,256.00
2022-08-05T05:17:56.300Z,276.00
2022-08-05T05:19:16.460Z,312.00
2022-08-05T05:19:52.816Z,344.00
2022-08-05T05:20:50.840Z,352.00
2022-08-05T05:21:50.796Z,392.00
2022-08-05T05:22:50.777Z,432.00
2022-08-05T05:24:04.332Z,464.00
2022-08-05T05:24:59.114Z,476.00
2022-08-05T05:25:51.821Z,460.00
2022-08-05T05:26:51.932Z,480.00
2022-08-05T05:27:53.956Z,492.00
2022-08-05T05:28:51.787Z,508.00
2022-08-05T05:30:03.321Z,552.00
2022-08-05T05:30:51.695Z,580.00
2022-08-05T05:31:51.068Z,616.00
2022-08-05T05:32:50.762Z,636.00
2022-08-05T05:34:01.931Z,656.00
2022-08-05T05:34:52.422Z,684.00
2022-08-05T05:35:50.657Z,704.00
2022-08-05T05:36:50.694Z,716.00
2022-08-05T05:38:00.140Z,700.00
2022-08-05T05:38:51.656Z,692.00
2022-08-05T06:01:02.525Z,404.00
2022-08-05T06:01:58.983Z,420.00
2022-08-05T06:02:57.758Z,388.00
2022-08-05T06:04:02.121Z,348.00
2022-08-05T06:04:58.888Z,308.00
2022-08-05T06:05:57.854Z,272.00
2022-08-05T06:06:57.618Z,244.00
2022-08-05T06:08:02.103Z,240.00
2022-08-05T06:08:58.613Z,244.00
2022-08-05T06:10:04.474Z,248.00
2022-08-05T06:10:57.695Z,240.00
2022-08-05T06:11:59.137Z,232.00
2022-08-05T06:12:57.527Z,240.00
2022-08-05T06:13:57.540Z,232.00
2022-08-05T06:14:57.622Z,220.00
2022-08-05T06:16:31.371Z,216.00
2022-08-05T06:16:58.524Z,224.00
2022-08-05T06:17:57.512Z,228.00
2022-08-05T06:18:57.494Z,220.00
2022-08-05T06:19:59.561Z,220.00
2022-08-05T06:20:57.475Z,228.00
2022-08-05T06:21:57.495Z,244.00
2022-08-05T06:22:58.096Z,272.00
2022-08-05T06:23:57.423Z,296.00
2022-08-05T06:24:57.951Z,320.00
2022-08-05T06:26:12.812Z,348.00
2022-08-05T06:26:58.469Z,412.00
2022-08-05T06:28:11.314Z,504.00
2022-08-05T06:28:58.400Z,624.00
2022-08-05T06:30:04.499Z,744.00
2022-08-05T06:30:58.347Z,852.00
2022-08-05T06:35:15.549Z,876.00
2022-08-05T06:36:05.676Z,896.00
2022-08-05T06:41:16.717Z,1044.00
2022-08-05T06:41:29.680Z,940.00
2022-08-05T06:42:29.873Z,940.00
2022-08-05T06:43:58.966Z,1004.00
2022-08-05T06:44:21.996Z,932.00
2022-08-05T06:45:21.304Z,904.00
2022-08-05T06:48:36.959Z,856.00
2022-08-05T06:48:44.293Z,876.00
2022-08-05T06:48:55.923Z,816.00
2022-08-05T06:50:01.200Z,744.00
2022-08-05T06:51:00.093Z,664.00
2022-08-05T07:04:00.553Z,940.00
2022-08-05T07:21:17.659Z,1008.00
2022-08-05T07:34:33.399Z,980.00
2022-08-05T08:12:35.457Z,2364.00
2022-08-05T08:17:43.987Z,2252.00
2022-08-05T08:17:52.653Z,2148.00
2022-08-05T08:18:49.978Z,2188.00
2022-08-05T08:20:22.360Z,2200.00
2022-08-05T08:21:02.082Z,2168.00
2022-08-05T08:22:16.592Z,1604.00
2022-08-05T08:24:02.164Z,1376.00
2022-08-05T08:27:10.740Z,1072.00
2022-08-05T08:27:18.420Z,964.00
2022-08-05T08:28:18.862Z,832.00
2022-08-05T08:29:29.420Z,884.00
2022-08-05T08:30:27.648Z,1016.00
2022-08-05T08:31:18.404Z,1440.00
2022-08-05T08:32:18.608Z,1508.00
2022-08-05T08:33:19.790Z,1740.00
2022-08-05T08:34:18.567Z,1908.00
2022-08-05T08:35:17.252Z,1732.00
2022-08-05T08:36:48.795Z,1636.00
2022-08-05T08:37:19.936Z,1908.00
2022-08-05T08:38:18.333Z,2344.00
2022-08-05T08:39:18.160Z,2572.00
2022-08-05T08:40:17.109Z,2620.00
2022-08-05T08:41:17.077Z,2652.00
2022-08-05T08:42:50.552Z,2904.00
2022-08-05T08:45:20.173Z,3528.00
2022-08-05T08:45:20.945Z,3972.00
2022-08-05T08:45:26.570Z,3428.00
2022-08-05T08:46:18.000Z,4596.00
2022-08-05T08:47:47.487Z,4216.00
2022-08-05T08:48:42.996Z,4076.00
2022-08-05T08:50:22.627Z,4284.00
2022-08-05T08:50:29.998Z,3724.00
2022-08-05T08:52:02.040Z,3912.00
2022-08-05T08:52:18.001Z,4096.00
2022-08-05T08:53:16.973Z,4612.00
2022-08-05T08:54:17.134Z,4348.00
2022-08-05T08:55:19.551Z,4692.00
2022-08-05T08:56:18.112Z,3476.00
2022-08-05T08:57:17.721Z,3520.00
2022-08-05T08:58:16.894Z,3244.00
2022-08-05T08:59:19.696Z,2604.00
2022-08-05T09:00:19.453Z,2848.00
2022-08-05T09:01:18.318Z,3016.00
2022-08-05T09:02:17.718Z,3756.00
2022-08-05T09:03:19.252Z,4748.00
2022-08-05T09:04:16.828Z,3456.00
2022-08-05T09:05:18.520Z,5096.00
2022-08-05T09:06:21.386Z,4396.00
2022-08-05T09:07:19.617Z,2556.00
2022-08-05T09:08:17.839Z,3088.00
2022-08-05T09:09:17.023Z,2188.00
2022-08-05T09:10:16.788Z,2008.00
2022-08-05T09:11:17.138Z,1964.00
2022-08-05T09:12:19.938Z,3488.00
2022-08-05T09:13:16.775Z,1928.00
2022-08-05T09:14:56.938Z,1528.00
2022-08-05T09:15:17.974Z,2360.00
2022-08-05T09:16:16.870Z,4664.00
2022-08-05T09:17:42.220Z,2080.00
2022-08-05T09:18:17.682Z,3168.00
2022-08-05T09:19:16.690Z,1856.00
2022-08-05T09:20:36.663Z,1336.00
2022-08-05T09:21:20.736Z,988.00
2022-08-05T09:22:36.263Z,1208.00
2022-08-05T09:23:19.991Z,1212.00
2022-08-05T09:24:16.906Z,1184.00
2022-08-05T09:25:24.474Z,1064.00
2022-08-05T09:26:20.934Z,984.00
2022-08-05T09:27:18.716Z,1060.00
2022-08-05T09:28:21.065Z,1288.00
2022-08-05T09:29:18.846Z,1004.00
2022-08-05T09:30:16.679Z,1584.00
2022-08-05T09:31:23.354Z,1800.00
2022-08-05T09:32:40.058Z,2192.00
2022-08-05T09:33:17.668Z,2216.00
2022-08-05T09:34:16.605Z,2668.00
2022-08-05T09:35:26.601Z,3816.00
2022-08-05T09:36:17.631Z,5184.00
2022-08-05T09:37:16.802Z,3980.00
2022-08-05T09:38:27.447Z,3300.00
2022-08-05T09:39:21.926Z,24192.00
2022-08-05T09:40:24.567Z,3288.00
2022-08-05T09:41:16.458Z,4448.00
2022-08-05T09:42:28.293Z,2856.00
2022-08-05T09:43:17.538Z,6480.00
2022-08-05T09:44:16.487Z,5236.00
2022-08-05T09:46:02.694Z,2040.00
2022-08-05T09:46:18.984Z,1500.00
2022-08-05T09:47:18.008Z,1276.00
2022-08-05T09:48:16.530Z,1176.00
2022-08-05T09:49:19.116Z,1172.00
2022-08-05T09:50:17.796Z,1416.00
2022-08-05T09:51:29.169Z,2208.00
2022-08-05T09:52:16.360Z,2072.00
2022-08-05T09:53:26.175Z,2644.00
2022-08-05T09:54:21.404Z,2812.00
2022-08-05T09:55:57.612Z,3780.00
2022-08-05T09:56:17.416Z,3464.00
2022-08-05T09:57:23.436Z,3524.00
2022-08-05T09:59:41.313Z,2932.00
2022-08-05T09:59:45.840Z,2384.00
2022-08-05T10:02:10.258Z,2776.00
2022-08-05T10:02:14.691Z,2584.00
2022-08-05T10:03:15.776Z,2508.00
2022-08-05T10:05:35.758Z,2060.00
2022-08-05T10:07:14.093Z,1756.00
2022-08-05T10:07:20.481Z,1900.00
2022-08-05T10:08:37.696Z,2388.00
2022-08-05T10:09:27.443Z,2416.00
2022-08-05T10:10:15.119Z,2580.00
2022-08-05T10:11:10.886Z,3520.00
2022-08-05T10:12:18.967Z,3352.00
2022-08-05T10:14:33.977Z,4460.00
2022-08-05T10:15:34.618Z,2856.00
2022-08-05T10:15:38.197Z,2240.00
2022-08-05T10:16:52.541Z,2108.00
2022-08-05T10:17:40.734Z,2756.00
2022-08-05T10:18:38.354Z,2576.00
2022-08-05T10:22:34.824Z,2824.00
2022-08-05T10:23:55.071Z,2408.00
2022-08-05T10:28:09.230Z,2624.00
2022-08-05T10:28:41.627Z,2688.00
2022-08-05T10:30:41.022Z,3040.00
2022-08-05T10:32:48.605Z,3880.00
2022-08-05T10:32:51.661Z,4540.00
2022-08-05T10:32:52.724Z,4760.00
2022-08-05T10:33:42.143Z,3032.00
2022-08-05T10:34:41.103Z,3304.00
2022-08-05T10:35:44.086Z,3896.00
2022-08-05T10:38:02.400Z,3372.00
2022-08-05T10:38:59.149Z,4512.00
2022-08-05T10:39:10.333Z,3968.00
2022-08-05T10:40:45.055Z,1508.00
2022-08-05T10:41:06.468Z,6888.00
2022-08-05T10:42:05.594Z,3032.00
2022-08-05T10:43:05.800Z,5132.00
2022-08-05T10:44:07.113Z,2880.00
2022-08-05T10:45:21.065Z,5576.00
2022-08-05T10:46:07.058Z,3908.00
2022-08-05T10:47:05.641Z,2468.00
2022-08-05T10:48:31.440Z,3052.00
2022-08-05T10:49:26.986Z,2016.00
2022-08-05T10:50:31.834Z,1892.00
2022-08-05T10:51:22.506Z,2044.00
2022-08-05T10:53:39.473Z,3528.00
2022-08-05T10:54:38.727Z,3348.00
2022-08-05T10:56:05.041Z,2536.00
2022-08-05T10:56:38.556Z,2516.00
2022-08-05T10:57:38.715Z,2820.00
2022-08-05T10:58:48.680Z,2612.00
2022-08-05T11:00:02.963Z,2388.00
2022-08-05T11:00:45.842Z,2396.00
2022-08-05T11:01:55.045Z,2368.00
2022-08-05T11:02:43.801Z,2224.00
2022-08-05T11:03:39.309Z,2344.00
2022-08-05T11:04:42.010Z,2188.00
2022-08-05T11:05:37.500Z,2528.00
2022-08-05T11:08:36.788Z,2288.00
2022-08-05T11:08:39.083Z,2276.00
2022-08-05T11:09:32.100Z,2392.00
2022-08-05T11:10:22.906Z,2608.00
2022-08-05T11:11:21.098Z,2220.00
2022-08-05T11:13:54.757Z,2224.00
2022-08-05T11:13:55.026Z,2760.00
2022-08-05T11:15:01.122Z,2684.00
2022-08-05T11:16:00.937Z,1916.00
2022-08-05T11:16:58.611Z,2288.00
2022-08-05T11:17:57.615Z,2012.00
2022-08-05T11:18:51.749Z,2668.00
2022-08-05T11:20:10.582Z,2856.00
2022-08-05T11:20:50.373Z,2184.00
2022-08-05T11:21:49.744Z,2416.00
2022-08-05T11:22:50.039Z,2140.00
2022-08-05T11:24:05.660Z,2248.00
2022-08-05T11:24:50.682Z,2628.00
2022-08-05T11:26:04.790Z,2584.00
2022-08-05T11:26:50.199Z,2820.00
2022-08-05T11:29:15.614Z,2936.00
2022-08-05T11:29:31.945Z,2512.00
2022-08-05T11:30:17.469Z,2512.00
2022-08-05T11:31:54.380Z,2028.00
2022-08-05T11:32:18.353Z,780.00
2022-08-05T11:33:21.093Z,460.00
2022-08-05T11:34:22.497Z,480.00
2022-08-05T11:35:18.342Z,632.00
2022-08-05T11:36:34.509Z,1188.00
2022-08-05T11:38:28.358Z,860.00
2022-08-05T11:38:29.526Z,816.00
2022-08-05T11:39:18.445Z,640.00
2022-08-05T11:40:18.390Z,688.00
2022-08-05T11:41:56.351Z,776.00
2022-08-05T11:42:18.651Z,904.00
2022-08-05T11:43:17.694Z,1028.00
2022-08-05T11:44:40.794Z,856.00
2022-08-05T11:46:15.610Z,860.00
2022-08-05T11:46:32.788Z,708.00
2022-08-05T11:47:22.074Z,704.00
2022-08-05T11:48:18.242Z,668.00
2022-08-05T11:49:17.170Z,984.00
2022-08-05T11:50:17.257Z,1260.00
2022-08-05T11:51:44.411Z,976.00
2022-08-05T11:52:18.125Z,980.00
2022-08-05T11:53:17.159Z,1080.00
2022-08-05T11:54:17.129Z,1136.00
2022-08-05T11:55:17.198Z,1028.00
2022-08-05T11:56:17.055Z,1096.00
2022-08-05T11:57:25.407Z,1040.00
2022-08-05T11:58:18.108Z,1100.00
2022-08-05T11:59:17.137Z,1096.00
2022-08-05T12:00:17.055Z,1588.00
2022-08-05T12:01:19.132Z,2496.00
2022-08-05T12:02:30.524Z,1836.00
2022-08-05T12:03:24.089Z,1736.00
2022-08-05T12:04:18.039Z,1996.00
2022-08-05T12:05:18.112Z,1812.00
2022-08-05T12:06:17.146Z,1520.00
2022-08-05T12:07:17.017Z,1644.00
2022-08-05T12:08:18.417Z,1408.00
2022-08-05T12:09:19.848Z,1736.00
2022-08-05T12:10:18.081Z,1368.00
2022-08-05T12:11:20.209Z,1208.00
2022-08-05T12:12:16.930Z,1212.00
2022-08-05T12:13:47.509Z,1120.00
2022-08-05T12:14:18.090Z,1184.00
2022-08-05T12:15:16.994Z,1012.00
2022-08-05T12:16:16.990Z,1324.00
2022-08-05T12:18:04.310Z,1292.00
2022-08-05T12:18:18.095Z,1084.00
2022-08-05T12:20:26.288Z,1268.00
2022-08-05T12:20:30.760Z,1768.00
2022-08-05T12:21:17.850Z,1192.00
2022-08-05T12:22:19.943Z,1516.00
2022-08-05T12:23:17.818Z,1392.00
2022-08-05T12:24:17.383Z,1508.00
2022-08-05T12:25:16.822Z,1200.00
2022-08-05T12:26:16.782Z,1452.00
2022-08-05T12:27:21.635Z,1088.00
2022-08-05T12:28:17.824Z,1372.00
2022-08-05T12:29:17.928Z,1328.00
2022-08-05T12:30:17.826Z,1108.00
2022-08-05T12:31:23.462Z,988.00
2022-08-05T12:32:17.775Z,820.00
2022-08-05T12:33:27.240Z,896.00
2022-08-05T12:34:21.585Z,772.00
2022-08-05T12:35:21.664Z,776.00
2022-08-05T12:36:16.799Z,724.00
2022-08-05T12:37:17.555Z,712.00
2022-08-05T12:38:17.707Z,792.00
2022-08-05T12:39:16.743Z,556.00
2022-08-05T12:40:26.417Z,452.00
2022-08-05T12:41:17.642Z,488.00
2022-08-05T12:42:16.628Z,420.00
2022-08-05T12:43:20.784Z,420.00
2022-08-05T12:44:21.506Z,444.00
2022-08-05T12:45:16.625Z,428.00
2022-08-05T12:46:17.223Z,364.00
2022-08-05T12:47:17.059Z,376.00
2022-08-05T12:48:27.045Z,548.00
2022-08-05T12:49:19.157Z,476.00
2022-08-05T12:50:17.265Z,452.00
2022-08-05T12:52:10.192Z,380.00
2022-08-05T12:52:46.203Z,344.00
2022-08-05T12:53:55.604Z,316.00
2022-08-05T12:54:47.227Z,384.00
2022-08-05T12:55:46.112Z,340.00
2022-08-05T12:56:46.080Z,420.00
2022-08-05T12:58:52.054Z,332.00
2022-08-05T12:58:52.684Z,440.00
2022-08-05T13:01:57.957Z,360.00
